Pehuen — CA2917 — position and weather

sailwx.info

Track history (hours):
 
Tides and Currents Weather Stations Pressure Air Temp Water Temp Dewpoint Dewpoint Depression Visibility Wind Speed Wind Dir Waves Ship Positions

Pehuen

Last reported at 2018-Feb-21 15:38 UTC. Time now 2018-Feb-21 17:29 UTC.
Position S 32°46' W 071°31'.

Length 31 m; draft 4.5 m.

Type: Towing. MMSI: 725000722.

Date/timePositionNaut miles runAvg speedWind from/ knotsBaromVisibWave heightAir tempDewpointWater temp
2018-Feb-21 15:38S 32°46' W 071°31'0 3.3
2018-Feb-21 15:29S 32°45' W 071°32'1 1.7
2018-Feb-21 14:51S 32°46' W 071°31'0 0.0
2018-Feb-21 14:27S 32°46' W 071°31'0 0.0
2018-Feb-21 11:51S 32°46' W 071°31'0 0.0
2018-Feb-20 12:40S 32°46' W 071°31'0 0.0
2018-Feb-19 16:14S 32°46' W 071°31'0 0.0
2018-Feb-18 18:14S 32°46' W 071°31'0 0.0
2018-Feb-18 17:47S 32°46' W 071°31'0 0.0
2018-Feb-18 14:35S 32°46' W 071°31'0 0.1
2018-Feb-18 14:23S 32°46' W 071°31'1 0.4
2018-Feb-18 12:47S 32°46' W 071°31'1 3.6
2018-Feb-18 12:29S 32°45' W 071°32'1 0.8
2018-Feb-18 11:15S 32°46' W 071°31'0 0.8
2018-Feb-18 10:59S 32°47' W 071°32'0 0.4
2018-Feb-18 10:30S 32°46' W 071°31'0 0.0
2018-Feb-17 15:25S 32°46' W 071°31'0 0.0
2018-Feb-17 14:55S 32°46' W 071°31'0 0.0
2018-Feb-17 13:31S 32°46' W 071°31'0 0.1
2018-Feb-17 13:25S 32°46' W 071°31'0 0.0
2018-Feb-17 12:49S 32°46' W 071°31'0 0.0
2018-Feb-17 12:25S 32°46' W 071°31'0 0.0
2018-Feb-17 11:52S 32°46' W 071°31'0 0.0
2018-Feb-17 11:28S 32°46' W 071°31'0 0.0
2018-Feb-16 23:40S 32°46' W 071°31'0 0.0
2018-Feb-16 23:22S 32°46' W 071°31'0 0.0
2018-Feb-16 22:58S 32°46' W 071°31'0 0.0
2018-Feb-16 22:22S 32°46' W 071°31'0 0.0
2018-Feb-16 21:46S 32°46' W 071°31'0 0.0
2018-Feb-16 16:36S 32°46' W 071°31'1 0.5
2018-Feb-16 14:35S 32°46' W 071°30'1 2.3
2018-Feb-16 13:57S 32°45' W 071°32'1 0.1
2018-Feb-15 18:52S 32°47' W 071°32'0 0.1
2018-Feb-15 17:18S 32°46' W 071°31'0 0.0
2018-Feb-15 16:57S 32°46' W 071°31'0 0.0
2018-Feb-15 16:27S 32°46' W 071°31'0 0.0
2018-Feb-15 15:51S 32°46' W 071°31'0 0.0
2018-Feb-15 15:21S 32°46' W 071°31'0 0.0
2018-Feb-15 14:54S 32°46' W 071°31'0 0.0
2018-Feb-15 13:51S 32°46' W 071°31'0 0.0
2018-Feb-15 13:18S 32°46' W 071°31'0 1.3
2018-Feb-15 13:00S 32°46' W 071°31'1 1.4
2018-Feb-15 12:06S 32°45' W 071°31'2 1.3
2018-Feb-15 10:51S 32°46' W 071°31'0 0.0
2018-Feb-15 10:30S 32°46' W 071°31'0 0.0
2018-Feb-15 03:13S 32°46' W 071°31'0 0.0
2018-Feb-14 22:24S 32°46' W 071°31'0 0.0
2018-Feb-14 21:59S 32°46' W 071°31'0 0.0
2018-Feb-14 18:38S 32°46' W 071°31'0 0.0
2018-Feb-14 18:26S 32°46' W 071°31'0 0.0
2018-Feb-14 17:50S 32°46' W 071°31'0 0.0
2018-Feb-14 17:26S 32°46' W 071°31'0 0.0
2018-Feb-14 16:59S 32°46' W 071°31'0 0.0
2018-Feb-14 16:29S 32°46' W 071°31'0 0.0
2018-Feb-14 15:53S 32°46' W 071°31'0 0.0
2018-Feb-14 15:26S 32°46' W 071°31'0 0.0
2018-Feb-14 14:44S 32°46' W 071°31'0 0.0
2018-Feb-14 14:02S 32°46' W 071°31'0 0.0
2018-Feb-14 13:59S 32°46' W 071°31'0 0.0
2018-Feb-14 13:29S 32°46' W 071°31'0 0.0
2018-Feb-14 11:36S 32°46' W 071°31'1 1.6
2018-Feb-14 11:17S 32°46' W 071°31'1 0.0
2018-Feb-13 16:21S 32°46' W 071°31'0 0.3
2018-Feb-13 16:00S 32°47' W 071°32'0 0.0
2018-Feb-13 15:30S 32°47' W 071°32'0 0.0
2018-Feb-13 14:45S 32°47' W 071°32'0 0.0
2018-Feb-13 14:27S 32°47' W 071°32'1 1.2
2018-Feb-13 13:40S 32°46' W 071°31'0 2.3
2018-Feb-13 13:30S 32°45' W 071°31'0 0.7
2018-Feb-13 12:58S 32°45' W 071°31'1 1.3
2018-Feb-13 12:29S 32°46' W 071°32'3 6.5
2018-Feb-13 12:00S 32°48' W 071°34'4 8.5
2018-Feb-13 11:31S 32°52' W 071°35'4 8.7
2018-Feb-13 11:01S 32°57' W 071°36'4 9.0
2018-Feb-13 10:31S 33°01' W 071°37'1 2.7
2018-Feb-13 09:59S 33°02' W 071°37'0 0.0
2018-Feb-13 09:05S 33°02' W 071°37'0 0.0
2018-Feb-13 08:50S 33°02' W 071°37'0 0.0
2018-Feb-13 08:29S 33°02' W 071°37'0 0.0
2018-Feb-13 07:35S 33°02' W 071°37'0 0.0
2018-Feb-13 07:29S 33°02' W 071°37'0 0.0
2018-Feb-13 06:11S 33°02' W 071°37'0 0.0
2018-Feb-13 05:56S 33°02' W 071°37'0 0.0
2018-Feb-13 05:29S 33°02' W 071°37'0 0.0
2018-Feb-13 04:54S 33°02' W 071°37'0 0.0
2018-Feb-13 04:20S 33°02' W 071°37'0 0.0
2018-Feb-13 03:54S 33°02' W 071°37'0 0.0
2018-Feb-13 03:23S 33°02' W 071°37'0 0.0
2018-Feb-12 23:42S 33°02' W 071°37'0 0.0
2018-Feb-12 22:38S 33°02' W 071°37'0 0.1
2018-Feb-12 22:30S 33°02' W 071°37'0 0.0
2018-Feb-12 21:59S 33°02' W 071°37'0 0.0
2018-Feb-12 21:18S 33°02' W 071°37'0 0.0
2018-Feb-12 20:47S 33°02' W 071°37'0 0.0
2018-Feb-12 20:14S 33°02' W 071°37'0 0.0
2018-Feb-12 19:17S 33°02' W 071°37'0 0.0
2018-Feb-12 17:47S 33°02' W 071°37'0 0.0
2018-Feb-12 12:47S 33°02' W 071°37'0 0.0
2018-Feb-12 12:17S 33°02' W 071°37'0 0.0
2018-Feb-12 11:41S 33°02' W 071°37'0 0.0
2018-Feb-12 11:29S 33°02' W 071°37'0 0.0
2018-Feb-12 10:59S 33°02' W 071°37'0 0.0
2018-Feb-12 10:29S 33°02' W 071°37'0 0.0
2018-Feb-12 09:56S 33°02' W 071°37'0 0.0
2018-Feb-12 09:17S 33°02' W 071°37'0 0.0
2018-Feb-12 08:56S 33°02' W 071°37'0 0.0
2018-Feb-12 08:26S 33°02' W 071°37'0 0.0
2018-Feb-12 07:56S 33°02' W 071°37'0 0.0
2018-Feb-12 07:26S 33°02' W 071°37'0 0.0
2018-Feb-12 06:59S 33°02' W 071°37'0 0.0
2018-Feb-12 05:47S 33°02' W 071°37'0 0.0
2018-Feb-12 02:17S 33°02' W 071°37'0 0.0
2018-Feb-12 01:56S 33°02' W 071°37'0 0.0
2018-Feb-12 01:26S 33°02' W 071°37'1 1.0
2018-Feb-12 00:54S 33°02' W 071°38'0 0.4
2018-Feb-12 00:30S 33°02' W 071°37'0 0.7
2018-Feb-11 23:59S 33°02' W 071°37'0 0.1
2018-Feb-11 23:27S 33°02' W 071°37'0 0.0
2018-Feb-11 23:00S 33°02' W 071°37'3 6.4
2018-Feb-11 22:30S 32°59' W 071°36'4 8.2
2018-Feb-11 22:00S 32°55' W 071°36'4 8.1
2018-Feb-11 21:30S 32°51' W 071°35'4 8.4
2018-Feb-11 21:00S 32°47' W 071°34'2 3.5
2018-Feb-11 20:24S 32°46' W 071°31'0 0.0
2018-Feb-11 19:57S 32°46' W 071°31'0 0.0
2018-Feb-11 19:24S 32°46' W 071°31'0 0.0
2018-Feb-11 19:00S 32°46' W 071°31'0 0.0
2018-Feb-11 18:27S 32°46' W 071°31'0 0.0
2018-Feb-11 17:39S 32°46' W 071°31'0 0.0
2018-Feb-11 17:27S 32°46' W 071°31'0 0.0
2018-Feb-11 16:57S 32°46' W 071°31'0 0.0
2018-Feb-11 16:27S 32°46' W 071°31'0 0.0
2018-Feb-11 15:57S 32°46' W 071°31'  
Track history (hours):
 
Tides and Currents Weather Stations Pressure Air Temp Water Temp Dewpoint Dewpoint Depression Visibility Wind Speed Wind Dir Waves Ship Positions

Pehuen

Last reported at 2018-Feb-21 15:38 UTC. Time now 2018-Feb-21 17:29 UTC.
Position S 32°46' W 071°31'.

Length 31 m; draft 4.5 m.

Type: Towing. MMSI: 725000722.

Date/timePositionNaut miles runAvg speedWind from/ knotsBaromVisibWave heightAir tempDewpointWater temp
2018-Feb-21 15:38S 32°46' W 071°31'0 3.3
2018-Feb-21 15:29S 32°45' W 071°32'1 1.7
2018-Feb-21 14:51S 32°46' W 071°31'0 0.0
2018-Feb-21 14:27S 32°46' W 071°31'0 0.0
2018-Feb-21 11:51S 32°46' W 071°31'0 0.0
2018-Feb-20 12:40S 32°46' W 071°31'0 0.0
2018-Feb-19 16:14S 32°46' W 071°31'0 0.0
2018-Feb-18 18:14S 32°46' W 071°31'0 0.0
2018-Feb-18 17:47S 32°46' W 071°31'0 0.0
2018-Feb-18 14:35S 32°46' W 071°31'0 0.1
2018-Feb-18 14:23S 32°46' W 071°31'1 0.4
2018-Feb-18 12:47S 32°46' W 071°31'1 3.6
2018-Feb-18 12:29S 32°45' W 071°32'1 0.8
2018-Feb-18 11:15S 32°46' W 071°31'0 0.8
2018-Feb-18 10:59S 32°47' W 071°32'0 0.4
2018-Feb-18 10:30S 32°46' W 071°31'0 0.0
2018-Feb-17 15:25S 32°46' W 071°31'0 0.0
2018-Feb-17 14:55S 32°46' W 071°31'0 0.0
2018-Feb-17 13:31S 32°46' W 071°31'0 0.1
2018-Feb-17 13:25S 32°46' W 071°31'0 0.0
2018-Feb-17 12:49S 32°46' W 071°31'0 0.0
2018-Feb-17 12:25S 32°46' W 071°31'0 0.0
2018-Feb-17 11:52S 32°46' W 071°31'0 0.0
2018-Feb-17 11:28S 32°46' W 071°31'0 0.0
2018-Feb-16 23:40S 32°46' W 071°31'0 0.0
2018-Feb-16 23:22S 32°46' W 071°31'0 0.0
2018-Feb-16 22:58S 32°46' W 071°31'0 0.0
2018-Feb-16 22:22S 32°46' W 071°31'0 0.0
2018-Feb-16 21:46S 32°46' W 071°31'0 0.0
2018-Feb-16 16:36S 32°46' W 071°31'1 0.5
2018-Feb-16 14:35S 32°46' W 071°30'1 2.3
2018-Feb-16 13:57S 32°45' W 071°32'1 0.1
2018-Feb-15 18:52S 32°47' W 071°32'0 0.1
2018-Feb-15 17:18S 32°46' W 071°31'0 0.0
2018-Feb-15 16:57S 32°46' W 071°31'0 0.0
2018-Feb-15 16:27S 32°46' W 071°31'0 0.0
2018-Feb-15 15:51S 32°46' W 071°31'0 0.0
2018-Feb-15 15:21S 32°46' W 071°31'0 0.0
2018-Feb-15 14:54S 32°46' W 071°31'0 0.0
2018-Feb-15 13:51S 32°46' W 071°31'0 0.0
2018-Feb-15 13:18S 32°46' W 071°31'0 1.3
2018-Feb-15 13:00S 32°46' W 071°31'1 1.4
2018-Feb-15 12:06S 32°45' W 071°31'2 1.3
2018-Feb-15 10:51S 32°46' W 071°31'0 0.0
2018-Feb-15 10:30S 32°46' W 071°31'0 0.0
2018-Feb-15 03:13S 32°46' W 071°31'0 0.0
2018-Feb-14 22:24S 32°46' W 071°31'0 0.0
2018-Feb-14 21:59S 32°46' W 071°31'0 0.0
2018-Feb-14 18:38S 32°46' W 071°31'0 0.0
2018-Feb-14 18:26S 32°46' W 071°31'0 0.0
2018-Feb-14 17:50S 32°46' W 071°31'0 0.0
2018-Feb-14 17:26S 32°46' W 071°31'0 0.0
2018-Feb-14 16:59S 32°46' W 071°31'0 0.0
2018-Feb-14 16:29S 32°46' W 071°31'0 0.0
2018-Feb-14 15:53S 32°46' W 071°31'0 0.0
2018-Feb-14 15:26S 32°46' W 071°31'0 0.0
2018-Feb-14 14:44S 32°46' W 071°31'0 0.0
2018-Feb-14 14:02S 32°46' W 071°31'0 0.0
2018-Feb-14 13:59S 32°46' W 071°31'0 0.0
2018-Feb-14 13:29S 32°46' W 071°31'0 0.0
2018-Feb-14 11:36S 32°46' W 071°31'1 1.6
2018-Feb-14 11:17S 32°46' W 071°31'1 0.0
2018-Feb-13 16:21S 32°46' W 071°31'0 0.3
2018-Feb-13 16:00S 32°47' W 071°32'0 0.0
2018-Feb-13 15:30S 32°47' W 071°32'0 0.0
2018-Feb-13 14:45S 32°47' W 071°32'0 0.0
2018-Feb-13 14:27S 32°47' W 071°32'1 1.2
2018-Feb-13 13:40S 32°46' W 071°31'0 2.3
2018-Feb-13 13:30S 32°45' W 071°31'0 0.7
2018-Feb-13 12:58S 32°45' W 071°31'1 1.3
2018-Feb-13 12:29S 32°46' W 071°32'3 6.5
2018-Feb-13 12:00S 32°48' W 071°34'4 8.5
2018-Feb-13 11:31S 32°52' W 071°35'4 8.7
2018-Feb-13 11:01S 32°57' W 071°36'4 9.0
2018-Feb-13 10:31S 33°01' W 071°37'1 2.7
2018-Feb-13 09:59S 33°02' W 071°37'0 0.0
2018-Feb-13 09:05S 33°02' W 071°37'0 0.0
2018-Feb-13 08:50S 33°02' W 071°37'0 0.0
2018-Feb-13 08:29S 33°02' W 071°37'0 0.0
2018-Feb-13 07:35S 33°02' W 071°37'0 0.0
2018-Feb-13 07:29S 33°02' W 071°37'0 0.0
2018-Feb-13 06:11S 33°02' W 071°37'0 0.0
2018-Feb-13 05:56S 33°02' W 071°37'0 0.0
2018-Feb-13 05:29S 33°02' W 071°37'0 0.0
2018-Feb-13 04:54S 33°02' W 071°37'0 0.0
2018-Feb-13 04:20S 33°02' W 071°37'0 0.0
2018-Feb-13 03:54S 33°02' W 071°37'0 0.0
2018-Feb-13 03:23S 33°02' W 071°37'0 0.0
2018-Feb-12 23:42S 33°02' W 071°37'0 0.0
2018-Feb-12 22:38S 33°02' W 071°37'0 0.1
2018-Feb-12 22:30S 33°02' W 071°37'0 0.0
2018-Feb-12 21:59S 33°02' W 071°37'0 0.0
2018-Feb-12 21:18S 33°02' W 071°37'0 0.0
2018-Feb-12 20:47S 33°02' W 071°37'0 0.0
2018-Feb-12 20:14S 33°02' W 071°37'0 0.0
2018-Feb-12 19:17S 33°02' W 071°37'0 0.0
2018-Feb-12 17:47S 33°02' W 071°37'0 0.0
2018-Feb-12 12:47S 33°02' W 071°37'0 0.0
2018-Feb-12 12:17S 33°02' W 071°37'0 0.0
2018-Feb-12 11:41S 33°02' W 071°37'0 0.0
2018-Feb-12 11:29S 33°02' W 071°37'0 0.0
2018-Feb-12 10:59S 33°02' W 071°37'0 0.0
2018-Feb-12 10:29S 33°02' W 071°37'0 0.0
2018-Feb-12 09:56S 33°02' W 071°37'0 0.0
2018-Feb-12 09:17S 33°02' W 071°37'0 0.0
2018-Feb-12 08:56S 33°02' W 071°37'0 0.0
2018-Feb-12 08:26S 33°02' W 071°37'0 0.0
2018-Feb-12 07:56S 33°02' W 071°37'0 0.0
2018-Feb-12 07:26S 33°02' W 071°37'0 0.0
2018-Feb-12 06:59S 33°02' W 071°37'0 0.0
2018-Feb-12 05:47S 33°02' W 071°37'0 0.0
2018-Feb-12 02:17S 33°02' W 071°37'0 0.0
2018-Feb-12 01:56S 33°02' W 071°37'0 0.0
2018-Feb-12 01:26S 33°02' W 071°37'1 1.0
2018-Feb-12 00:54S 33°02' W 071°38'0 0.4
2018-Feb-12 00:30S 33°02' W 071°37'0 0.7
2018-Feb-11 23:59S 33°02' W 071°37'0 0.1
2018-Feb-11 23:27S 33°02' W 071°37'0 0.0
2018-Feb-11 23:00S 33°02' W 071°37'3 6.4
2018-Feb-11 22:30S 32°59' W 071°36'4 8.2
2018-Feb-11 22:00S 32°55' W 071°36'4 8.1
2018-Feb-11 21:30S 32°51' W 071°35'4 8.4
2018-Feb-11 21:00S 32°47' W 071°34'2 3.5
2018-Feb-11 20:24S 32°46' W 071°31'0 0.0
2018-Feb-11 19:57S 32°46' W 071°31'0 0.0
2018-Feb-11 19:24S 32°46' W 071°31'0 0.0
2018-Feb-11 19:00S 32°46' W 071°31'0 0.0
2018-Feb-11 18:27S 32°46' W 071°31'0 0.0
2018-Feb-11 17:39S 32°46' W 071°31'0 0.0
2018-Feb-11 17:27S 32°46' W 071°31'0 0.0
2018-Feb-11 16:57S 32°46' W 071°31'0 0.0
2018-Feb-11 16:27S 32°46' W 071°31'0 0.0
2018-Feb-11 15:57S 32°46' W 071°31'  

Dump ship's entire track history